createdAt,value
2019-05-25T00:11:32.801Z,27.90
2019-05-25T00:14:03.514Z,27.90
2019-05-25T00:16:35.027Z,28.00
2019-05-25T00:19:05.822Z,28.00
2019-05-25T00:21:36.705Z,28.00
2019-05-25T00:24:12.160Z,28.10
2019-05-25T00:26:39.611Z,28.10
2019-05-25T00:29:10.297Z,28.10
2019-05-25T00:31:41.482Z,28.20
2019-05-25T00:34:12.485Z,28.20
2019-05-25T00:36:43.303Z,28.20
2019-05-25T00:39:14.428Z,28.20
2019-05-25T00:41:45.327Z,28.30
2019-05-25T00:44:16.142Z,28.30
2019-05-25T00:46:46.954Z,28.30
2019-05-25T00:49:17.794Z,28.40
2019-05-25T00:51:49.438Z,28.40
2019-05-25T00:54:27.963Z,28.40
2019-05-25T00:56:53.009Z,28.40
2019-05-25T00:59:23.911Z,28.50
2019-05-25T01:01:54.636Z,28.50
2019-05-25T01:04:25.463Z,28.50
2019-05-25T01:06:56.318Z,28.50
2019-05-25T01:09:27.295Z,28.60
2019-05-25T01:11:58.154Z,28.60
2019-05-25T01:14:29.064Z,28.60
2019-05-25T01:16:59.646Z,28.60
2019-05-25T01:19:30.683Z,28.60
2019-05-25T01:22:01.769Z,28.50
2019-05-25T01:24:43.926Z,28.50
2019-05-25T01:27:05.343Z,28.50
2019-05-25T01:29:36.424Z,28.60
2019-05-25T01:32:07.604Z,28.60
2019-05-25T01:34:38.491Z,28.60
2019-05-25T01:37:09.942Z,28.60
2019-05-25T01:39:41.011Z,28.60
2019-05-25T01:42:11.791Z,28.60
2019-05-25T01:44:42.903Z,28.60
2019-05-25T01:47:13.883Z,28.60
2019-05-25T01:49:44.743Z,28.70
2019-05-25T01:52:15.779Z,28.70
2019-05-25T01:54:58.902Z,28.70
2019-05-25T01:57:19.244Z,28.80
2019-05-25T01:59:50.085Z,28.80
2019-05-25T02:02:21.241Z,28.90
2019-05-25T02:04:52.226Z,29.00
2019-05-25T02:07:22.918Z,29.10
2019-05-25T02:09:54.250Z,29.10
2019-05-25T02:12:24.897Z,29.30
2019-05-25T02:14:55.794Z,29.40
2019-05-25T02:17:26.678Z,29.40
2019-05-25T02:19:57.828Z,29.50
2019-05-25T02:22:28.472Z,29.50
2019-05-25T02:25:16.035Z,29.60
2019-05-25T02:27:31.424Z,29.70
2019-05-25T02:30:02.417Z,29.80
2019-05-25T02:32:33.425Z,29.80
2019-05-25T02:35:04.542Z,29.90
2019-05-25T02:37:35.897Z,30.00
2019-05-25T02:40:08.555Z,30.00
2019-05-25T02:42:39.582Z,30.10
2019-05-25T02:45:10.760Z,30.20
2019-05-25T02:47:41.723Z,30.30
2019-05-25T02:50:13.052Z,30.30
2019-05-25T02:52:43.989Z,30.40
2019-05-25T02:55:32.400Z,30.40
2019-05-25T02:57:49.908Z,30.50
2019-05-25T03:00:23.291Z,30.50
2019-05-25T03:02:54.672Z,30.60
2019-05-25T03:05:28.751Z,30.70
2019-05-25T03:08:03.638Z,30.80
2019-05-25T03:10:35.601Z,30.90
2019-05-25T03:13:07.601Z,30.90
2019-05-25T03:15:38.640Z,31.00
2019-05-25T03:18:09.646Z,31.10
2019-05-25T03:20:40.773Z,31.20
2019-05-25T03:23:11.829Z,31.20
2019-05-25T03:25:49.758Z,31.30
2019-05-25T03:28:14.642Z,31.30
2019-05-25T03:30:45.555Z,31.30
2019-05-25T03:33:16.493Z,31.40
2019-05-25T03:35:47.350Z,31.40
2019-05-25T03:38:18.441Z,31.50
2019-05-25T03:40:49.242Z,31.50
2019-05-25T03:43:20.186Z,31.60
2019-05-25T03:45:51.121Z,31.70
2019-05-25T03:48:21.975Z,31.70
2019-05-25T03:50:52.731Z,31.80
2019-05-25T03:53:23.437Z,31.70
2019-05-25T03:56:05.405Z,31.80
2019-05-25T03:58:26.339Z,31.70
2019-05-25T04:00:57.427Z,31.80
2019-05-25T04:03:28.255Z,31.80
2019-05-25T04:06:00.177Z,31.80
2019-05-25T04:08:31.013Z,31.80
2019-05-25T04:11:01.994Z,31.80
2019-05-25T04:13:32.628Z,31.90
2019-05-25T04:16:03.469Z,31.80
2019-05-25T04:18:34.268Z,31.80
2019-05-25T04:21:05.436Z,31.90
2019-05-25T04:23:36.108Z,31.80
2019-05-25T04:26:21.527Z,31.70
2019-05-25T04:28:39.487Z,31.80
2019-05-25T04:31:10.209Z,31.80
2019-05-25T04:33:41.110Z,31.90
2019-05-25T04:36:11.947Z,31.90
2019-05-25T04:38:42.911Z,32.00
2019-05-25T04:41:13.722Z,32.10
2019-05-25T04:43:47.557Z,32.10
2019-05-25T04:46:21.433Z,32.20
2019-05-25T04:48:53.575Z,32.20
2019-05-25T04:51:24.291Z,32.20
2019-05-25T04:53:55.328Z,32.20
2019-05-25T04:56:38.983Z,32.30
2019-05-25T04:58:58.526Z,32.20
2019-05-25T05:01:29.266Z,32.20
2019-05-25T05:04:00.239Z,32.20
2019-05-25T05:06:31.258Z,32.20
2019-05-25T05:09:02.213Z,32.30
2019-05-25T05:11:33.389Z,32.40
2019-05-25T05:14:04.877Z,32.50
2019-05-25T05:16:35.710Z,32.60
2019-05-25T05:19:06.670Z,32.70
2019-05-25T05:21:37.581Z,32.70
2019-05-25T05:24:08.578Z,32.80
2019-05-25T05:26:54.581Z,32.80
2019-05-25T05:29:11.803Z,32.90
2019-05-25T05:31:42.725Z,33.00
2019-05-25T05:34:13.600Z,33.10
2019-05-25T05:36:45.351Z,33.10
2019-05-25T05:39:16.452Z,33.20
2019-05-25T05:41:50.041Z,33.20
2019-05-25T05:44:23.320Z,33.10
2019-05-25T05:46:56.552Z,33.20
2019-05-25T05:49:28.851Z,33.10
2019-05-25T05:52:02.195Z,33.10
2019-05-25T05:54:34.069Z,33.10
2019-05-25T05:57:12.528Z,33.00
2019-05-25T05:59:37.218Z,33.00
2019-05-25T06:02:08.148Z,32.90
2019-05-25T06:04:39.579Z,32.90
2019-05-25T06:07:10.720Z,32.90
2019-05-25T06:09:41.853Z,32.80
2019-05-25T06:12:13.018Z,32.80
2019-05-25T06:14:43.747Z,32.80
2019-05-25T06:17:14.738Z,32.80
2019-05-25T06:19:45.719Z,32.80
2019-05-25T06:22:16.783Z,32.90
2019-05-25T06:24:48.144Z,32.90
2019-05-25T06:27:27.023Z,32.90
2019-05-25T06:29:51.089Z,32.90
2019-05-25T06:32:22.385Z,32.90
2019-05-25T06:34:53.499Z,32.90
2019-05-25T06:37:24.526Z,32.90
2019-05-25T06:39:55.464Z,32.90
2019-05-25T06:42:26.636Z,32.80
2019-05-25T06:44:57.649Z,32.90
2019-05-25T06:47:28.803Z,32.90
2019-05-25T06:49:59.831Z,33.00
2019-05-25T06:52:30.967Z,33.00
2019-05-25T06:55:01.842Z,33.20
2019-05-25T06:57:42.558Z,33.20
2019-05-25T07:00:06.554Z,33.20
2019-05-25T07:02:37.579Z,33.30
2019-05-25T07:05:10.854Z,33.20
2019-05-25T07:07:41.747Z,33.20
2019-05-25T07:10:13.530Z,33.10
2019-05-25T07:12:44.437Z,33.10
2019-05-25T07:15:16.861Z,33.00
2019-05-25T07:17:47.742Z,33.00
2019-05-25T07:20:19.220Z,33.00
2019-05-25T07:22:50.134Z,33.00
2019-05-25T07:25:21.290Z,33.00
2019-05-25T07:27:59.485Z,33.10
2019-05-25T07:30:25.060Z,33.10
2019-05-25T07:32:56.099Z,33.20
2019-05-25T07:35:27.034Z,33.20
2019-05-25T07:37:58.186Z,33.20
2019-05-25T07:40:29.203Z,33.20
2019-05-25T07:43:00.187Z,33.20
2019-05-25T07:45:31.927Z,33.20
2019-05-25T07:48:02.993Z,33.20
2019-05-25T07:50:34.053Z,33.30
2019-05-25T07:53:06.390Z,33.40
2019-05-25T07:55:42.796Z,33.40
2019-05-25T07:58:22.452Z,33.50
2019-05-25T08:00:53.370Z,33.50
2019-05-25T08:03:24.763Z,33.50
2019-05-25T08:05:55.650Z,33.50
2019-05-25T08:08:26.634Z,33.60
2019-05-25T08:11:02.837Z,33.50
2019-05-25T08:13:34.807Z,33.50
2019-05-25T08:16:05.922Z,33.50
2019-05-25T08:18:36.861Z,33.40
2019-05-25T08:21:07.926Z,33.40
2019-05-25T08:23:38.862Z,33.40
2019-05-25T08:26:09.894Z,33.40
2019-05-25T08:28:40.925Z,33.40
2019-05-25T08:31:12.300Z,33.30
2019-05-25T08:33:43.310Z,33.40
2019-05-25T08:36:14.139Z,33.40
2019-05-25T08:38:45.046Z,33.40
2019-05-25T08:41:15.918Z,33.40
2019-05-25T08:43:46.939Z,33.30
2019-05-25T08:46:17.837Z,33.30
2019-05-25T08:48:48.696Z,33.30
2019-05-25T08:51:19.499Z,33.30
2019-05-25T08:53:51.106Z,33.20
2019-05-25T08:56:21.882Z,33.20
2019-05-25T08:58:55.514Z,33.20
2019-05-25T09:01:35.115Z,33.20
2019-05-25T09:04:05.922Z,33.10
2019-05-25T09:06:42.122Z,33.10
2019-05-25T09:09:13.007Z,33.00
2019-05-25T09:11:44.282Z,33.00
2019-05-25T09:14:15.023Z,33.00
2019-05-25T09:16:45.924Z,33.00
2019-05-25T09:19:17.028Z,33.00
2019-05-25T09:22:01.497Z,33.00
2019-05-25T09:24:29.824Z,33.00
2019-05-25T09:27:01.405Z,33.00
2019-05-25T09:29:32.355Z,33.00
2019-05-25T09:32:06.782Z,33.10
2019-05-25T09:34:35.609Z,33.10
2019-05-25T09:37:06.805Z,33.10
2019-05-25T09:39:37.977Z,33.00
2019-05-25T09:42:09.345Z,33.00
2019-05-25T09:44:40.112Z,33.00
2019-05-25T09:47:12.328Z,32.90
2019-05-25T09:49:43.231Z,32.90
2019-05-25T09:52:14.046Z,32.80
2019-05-25T09:54:45.026Z,32.80
2019-05-25T09:57:16.002Z,32.70
2019-05-25T09:59:46.916Z,32.70
2019-05-25T10:02:17.797Z,32.50
2019-05-25T10:04:48.820Z,32.20
2019-05-25T10:07:19.870Z,32.10
2019-05-25T10:09:50.933Z,31.90
2019-05-25T10:12:21.873Z,31.80
2019-05-25T10:14:53.929Z,31.60
2019-05-25T10:17:24.887Z,31.50
2019-05-25T10:19:55.958Z,31.30
2019-05-25T10:22:26.953Z,31.20
2019-05-25T10:24:57.831Z,31.10
2019-05-25T10:27:28.598Z,31.00
2019-05-25T10:29:59.515Z,31.00
2019-05-25T10:32:30.465Z,30.90
2019-05-25T10:35:01.383Z,30.90
2019-05-25T10:37:32.317Z,30.90
2019-05-25T10:40:03.132Z,30.80
2019-05-25T10:42:33.907Z,30.80
2019-05-25T10:45:05.931Z,30.80
2019-05-25T10:47:36.636Z,30.70
2019-05-25T10:50:09.765Z,30.70
2019-05-25T10:52:40.813Z,30.70
2019-05-25T10:55:12.265Z,30.70
2019-05-25T10:57:43.067Z,30.60
2019-05-25T11:00:14.789Z,30.60
2019-05-25T11:02:45.609Z,30.60
2019-05-25T11:05:17.834Z,30.60
2019-05-25T11:07:48.924Z,30.50
2019-05-25T11:10:20.090Z,30.40
2019-05-25T11:12:51.177Z,30.40
2019-05-25T11:15:22.323Z,30.40
2019-05-25T11:17:53.091Z,30.30
2019-05-25T11:20:24.084Z,30.30
2019-05-25T11:22:55.047Z,30.30
2019-05-25T11:25:25.716Z,30.30
2019-05-25T11:27:56.950Z,30.40
2019-05-25T11:30:27.976Z,30.40
2019-05-25T11:32:58.696Z,30.40
2019-05-25T11:35:29.539Z,30.40
2019-05-25T11:38:00.337Z,30.40
2019-05-25T11:40:31.486Z,30.40
2019-05-25T11:43:02.364Z,30.40
2019-05-25T11:45:33.175Z,30.40
2019-05-25T11:48:04.027Z,30.40
2019-05-25T11:50:34.632Z,30.40
2019-05-25T11:53:06.045Z,30.40
2019-05-25T11:55:37.079Z,30.40
2019-05-25T11:58:07.932Z,30.40
2019-05-25T12:00:38.943Z,30.40
2019-05-25T12:03:09.914Z,30.40
2019-05-25T12:05:40.827Z,30.30
2019-05-25T12:08:11.603Z,30.30
2019-05-25T12:10:43.177Z,30.30
2019-05-25T12:13:13.943Z,30.30
2019-05-25T12:16:03.987Z,30.30
2019-05-25T12:18:35.085Z,30.30
2019-05-25T12:21:06.042Z,30.30
2019-05-25T12:23:37.410Z,30.20
2019-05-25T12:26:08.248Z,30.20
2019-05-25T12:28:38.944Z,30.20
2019-05-25T12:31:10.174Z,30.20
2019-05-25T12:33:41.035Z,30.20
2019-05-25T12:36:11.852Z,30.20
2019-05-25T12:38:42.630Z,30.10
2019-05-25T12:41:13.412Z,30.10
2019-05-25T12:43:44.290Z,30.10
2019-05-25T12:46:15.061Z,30.10
2019-05-25T12:48:45.924Z,30.10
2019-05-25T12:51:17.887Z,30.00
2019-05-25T12:53:48.965Z,30.00
2019-05-25T12:56:19.899Z,30.00
2019-05-25T12:58:50.750Z,30.00
2019-05-25T13:01:21.569Z,30.00
2019-05-25T13:03:52.255Z,30.00
2019-05-25T13:06:23.276Z,29.90
2019-05-25T13:08:54.052Z,29.90
2019-05-25T13:11:24.882Z,29.90
2019-05-25T13:13:55.662Z,29.90
2019-05-25T13:16:26.483Z,29.90
2019-05-25T13:18:57.426Z,29.80
2019-05-25T13:21:28.113Z,29.90
2019-05-25T13:23:58.835Z,29.90
2019-05-25T13:26:29.958Z,29.80
2019-05-25T13:29:00.758Z,29.80
2019-05-25T13:31:31.600Z,29.80
2019-05-25T13:34:02.384Z,29.80
2019-05-25T13:36:33.238Z,29.80
2019-05-25T13:39:04.275Z,29.80
2019-05-25T13:41:35.016Z,29.80
2019-05-25T13:44:05.927Z,29.80
2019-05-25T13:46:36.665Z,29.80
2019-05-25T13:49:07.507Z,29.80
2019-05-25T13:51:38.432Z,29.80
2019-05-25T13:54:09.184Z,29.80
2019-05-25T13:56:39.784Z,29.80
2019-05-25T13:59:10.507Z,29.70
2019-05-25T14:01:41.276Z,29.70
2019-05-25T14:04:12.160Z,29.70
2019-05-25T14:06:43.029Z,29.70
2019-05-25T14:09:15.873Z,29.70
2019-05-25T14:11:46.113Z,29.70
2019-05-25T14:14:16.776Z,29.70
2019-05-25T14:16:47.624Z,29.70
2019-05-25T14:19:18.467Z,29.60
2019-05-25T14:21:49.438Z,29.60
2019-05-25T14:24:20.268Z,29.70
2019-05-25T14:26:50.980Z,29.60
2019-05-25T14:29:21.758Z,29.60
2019-05-25T14:31:52.681Z,29.60
2019-05-25T14:34:23.466Z,29.60
2019-05-25T14:36:54.174Z,29.60
2019-05-25T14:39:25.025Z,29.50
2019-05-25T14:41:55.797Z,29.60
2019-05-25T14:44:26.620Z,29.50
2019-05-25T14:46:57.485Z,29.50
2019-05-25T14:49:28.424Z,29.50
2019-05-25T14:51:58.958Z,29.60
2019-05-25T14:54:29.815Z,29.60
2019-05-25T14:57:00.620Z,29.60
2019-05-25T14:59:31.460Z,29.60
2019-05-25T15:02:03.809Z,29.60
2019-05-25T15:04:35.017Z,29.60
2019-05-25T15:07:05.943Z,29.60
2019-05-25T15:09:36.789Z,29.60
2019-05-25T15:12:07.783Z,29.50
2019-05-25T15:14:38.667Z,29.50
2019-05-25T15:17:09.609Z,29.40
2019-05-25T15:19:40.399Z,29.40
2019-05-25T15:22:11.435Z,29.40
2019-05-25T15:24:42.426Z,29.40
2019-05-25T15:27:13.272Z,29.40
2019-05-25T15:29:44.192Z,29.40
2019-05-25T15:32:20.051Z,29.40
2019-05-25T15:34:47.245Z,29.30
2019-05-25T15:37:18.040Z,29.30
2019-05-25T15:39:49.089Z,29.30
2019-05-25T15:42:19.888Z,29.30
2019-05-25T15:44:50.867Z,29.20
2019-05-25T15:47:21.722Z,29.20
2019-05-25T15:49:52.777Z,29.20
2019-05-25T15:52:23.577Z,29.10
2019-05-25T15:54:54.500Z,29.10
2019-05-25T15:57:25.229Z,29.10
2019-05-25T15:59:55.978Z,29.10
2019-05-25T16:02:36.211Z,29.00
2019-05-25T16:04:59.093Z,29.00
2019-05-25T16:07:30.779Z,29.00
2019-05-25T16:10:01.526Z,29.00
2019-05-25T16:12:32.472Z,29.00
2019-05-25T16:15:03.256Z,29.00
2019-05-25T16:17:34.016Z,29.00
2019-05-25T16:20:05.255Z,28.90
2019-05-25T16:22:35.945Z,28.90
2019-05-25T16:25:08.765Z,29.00
2019-05-25T16:27:39.703Z,28.90
2019-05-25T16:30:11.261Z,28.90
2019-05-25T16:33:09.934Z,28.90
2019-05-25T16:35:14.050Z,28.90
2019-05-25T16:37:45.321Z,28.80
2019-05-25T16:40:16.611Z,28.80
2019-05-25T16:42:47.468Z,28.80
2019-05-25T16:45:18.954Z,28.80
2019-05-25T16:47:49.857Z,28.70
2019-05-25T16:50:21.180Z,28.70
2019-05-25T16:52:52.079Z,28.70
2019-05-25T16:55:23.138Z,28.70
2019-05-25T16:57:54.079Z,28.70
2019-05-25T17:00:27.342Z,28.70
2019-05-25T17:02:58.996Z,28.70
2019-05-25T17:05:30.351Z,28.70
2019-05-25T17:08:01.125Z,28.70
2019-05-25T17:10:31.905Z,28.70
2019-05-25T17:13:02.776Z,28.70
2019-05-25T17:15:33.656Z,28.70
2019-05-25T17:18:05.009Z,28.60
2019-05-25T17:20:36.166Z,28.60
2019-05-25T17:23:07.119Z,28.60
2019-05-25T17:25:38.054Z,28.60
2019-05-25T17:28:08.865Z,28.60
2019-05-25T17:30:42.326Z,28.60
2019-05-25T17:33:13.282Z,28.60
2019-05-25T17:35:44.832Z,28.60
2019-05-25T17:38:15.676Z,28.60
2019-05-25T17:40:46.516Z,28.60
2019-05-25T17:43:17.466Z,28.60
2019-05-25T17:45:48.274Z,28.60
2019-05-25T17:48:19.062Z,28.60
2019-05-25T17:50:49.977Z,28.60
2019-05-25T17:53:21.232Z,28.60
2019-05-25T17:55:52.391Z,28.60
2019-05-25T17:58:23.193Z,28.60
2019-05-25T18:00:54.102Z,28.60
2019-05-25T18:03:25.117Z,28.60
2019-05-25T18:05:56.113Z,28.60
2019-05-25T18:08:27.155Z,28.60
2019-05-25T18:10:58.177Z,28.60
2019-05-25T18:13:29.340Z,28.60
2019-05-25T18:16:00.204Z,28.60
2019-05-25T18:18:31.108Z,28.50
2019-05-25T18:21:02.173Z,28.50
2019-05-25T18:23:33.041Z,28.50
2019-05-25T18:26:03.799Z,28.40
2019-05-25T18:28:34.528Z,28.40
2019-05-25T18:31:05.391Z,28.40
2019-05-25T18:33:36.270Z,28.40
2019-05-25T18:36:07.209Z,28.30
2019-05-25T18:38:38.055Z,28.40
2019-05-25T18:41:09.013Z,28.30
2019-05-25T18:43:39.968Z,28.30
2019-05-25T18:46:10.753Z,28.30
2019-05-25T18:48:41.889Z,28.30
2019-05-25T18:51:13.039Z,28.30
2019-05-25T18:53:44.036Z,28.30
2019-05-25T18:56:14.966Z,28.40
2019-05-25T18:58:45.884Z,28.40
2019-05-25T19:01:16.657Z,28.40
2019-05-25T19:03:47.580Z,28.40
2019-05-25T19:06:18.346Z,28.40
2019-05-25T19:08:49.370Z,28.40
2019-05-25T19:11:20.215Z,28.40
2019-05-25T19:13:51.167Z,28.50
2019-05-25T19:16:22.024Z,28.40
2019-05-25T19:18:52.577Z,28.50
2019-05-25T19:21:23.603Z,28.50
2019-05-25T19:23:54.621Z,28.50
2019-05-25T19:26:25.376Z,28.50
2019-05-25T19:28:56.282Z,28.50
2019-05-25T19:31:26.931Z,28.50
2019-05-25T19:33:57.741Z,28.50
2019-05-25T19:36:28.531Z,28.40
2019-05-25T19:38:59.131Z,28.40
2019-05-25T19:41:29.943Z,28.40
2019-05-25T19:44:00.735Z,28.40
2019-05-25T19:46:31.521Z,28.40
2019-05-25T19:49:02.484Z,28.40
2019-05-25T19:51:33.389Z,28.50
2019-05-25T19:54:04.508Z,28.50
2019-05-25T19:56:35.446Z,28.50
2019-05-25T19:59:06.308Z,28.50
2019-05-25T20:01:37.234Z,28.40
2019-05-25T20:04:08.071Z,28.40
2019-05-25T20:06:38.959Z,28.40
2019-05-25T20:09:09.866Z,28.40
2019-05-25T20:11:40.722Z,28.30
2019-05-25T20:14:11.507Z,28.30
2019-05-25T20:16:42.225Z,28.30
2019-05-25T20:19:13.064Z,28.30
2019-05-25T20:21:43.741Z,28.20
2019-05-25T20:24:14.458Z,28.20
2019-05-25T20:26:45.406Z,28.20
2019-05-25T20:29:16.275Z,28.20
2019-05-25T20:31:47.220Z,28.20
2019-05-25T20:34:18.060Z,28.20
2019-05-25T20:36:49.031Z,28.20
2019-05-25T20:39:20.063Z,28.20
2019-05-25T20:41:51.184Z,28.20
2019-05-25T20:44:22.134Z,28.20
2019-05-25T20:46:52.971Z,28.20
2019-05-25T20:49:24.014Z,28.20
2019-05-25T20:51:54.833Z,28.20
2019-05-25T20:54:25.704Z,28.10
2019-05-25T20:56:56.680Z,28.10
2019-05-25T20:59:27.421Z,28.20
2019-05-25T21:01:58.290Z,28.10
2019-05-25T21:04:29.055Z,28.10
2019-05-25T21:07:00.055Z,28.10
2019-05-25T21:09:31.058Z,28.20
2019-05-25T21:12:02.047Z,28.20
2019-05-25T21:14:32.827Z,28.20
2019-05-25T21:17:03.745Z,28.10
2019-05-25T21:19:34.590Z,28.10
2019-05-25T21:22:05.511Z,28.10
2019-05-25T21:24:36.477Z,28.10
2019-05-25T21:27:07.176Z,28.00
2019-05-25T21:29:38.004Z,28.00
2019-05-25T21:32:08.835Z,28.00
2019-05-25T21:34:39.743Z,27.90
2019-05-25T21:37:10.739Z,27.90
2019-05-25T21:39:41.793Z,27.90
2019-05-25T21:42:12.708Z,27.90
2019-05-25T21:44:43.665Z,27.90
2019-05-25T21:47:14.420Z,27.80
2019-05-25T21:49:45.272Z,27.80
2019-05-25T21:52:16.145Z,27.80
2019-05-25T21:54:47.297Z,27.80
2019-05-25T21:57:18.362Z,27.80
2019-05-25T21:59:49.272Z,27.70
2019-05-25T22:02:19.958Z,27.70
2019-05-25T22:04:50.774Z,27.60
2019-05-25T22:07:21.819Z,27.60
2019-05-25T22:09:52.653Z,27.60
2019-05-25T22:12:23.454Z,27.60
2019-05-25T22:14:54.099Z,27.60
2019-05-25T22:17:24.807Z,27.60
2019-05-25T22:19:55.883Z,27.60
2019-05-25T22:22:26.513Z,27.60
2019-05-25T22:24:57.220Z,27.60
2019-05-25T22:27:28.216Z,27.60
2019-05-25T22:29:58.897Z,27.60
2019-05-25T22:32:29.729Z,27.60
2019-05-25T22:35:00.689Z,27.60
